San Diego Bridge — 3FTY6 — position and weather

sailwx.info

Track history (hours):
 
Tides and Currents Weather Stations Pressure Air Temp Water Temp Dewpoint Dewpoint Depression Visibility Wind Speed Wind Dir Waves Ship Positions

San Diego Bridge

Last reported at 2017-Nov-24 20:29 UTC. Time now 2017-Nov-24 20:46 UTC.
Position N 34°41' E 135°16'.

Length 293 m; draft 10.6 m.

Type: Cargo ship. MMSI: 357547000.

Date/timePositionNaut miles runAvg speedWind from/ knotsBaromVisibWave heightAir tempDewpointWater temp
2017-Nov-24 20:29N 34°41' E 135°16'0 0.0
2017-Nov-24 19:59N 34°41' E 135°16'0 0.0
2017-Nov-24 19:29N 34°41' E 135°16'0 0.0
2017-Nov-24 18:56N 34°41' E 135°16'0 0.0
2017-Nov-24 18:29N 34°41' E 135°16'0 0.0
2017-Nov-24 17:59N 34°41' E 135°16'0 0.0
2017-Nov-24 17:29N 34°41' E 135°16'0 0.0
2017-Nov-24 16:59N 34°41' E 135°16'0 0.0
2017-Nov-24 16:29N 34°41' E 135°16'0 0.0
2017-Nov-24 15:59N 34°41' E 135°16'0 0.0
2017-Nov-24 15:29N 34°41' E 135°16'0 0.0
2017-Nov-24 14:56N 34°41' E 135°16'0 0.0
2017-Nov-24 14:29N 34°41' E 135°16'0 0.0
2017-Nov-24 13:59N 34°41' E 135°16'0 0.0
2017-Nov-24 13:29N 34°41' E 135°16'0 0.0
2017-Nov-24 12:59N 34°41' E 135°16'0 0.0
2017-Nov-24 12:29N 34°41' E 135°16'0 0.0
2017-Nov-24 11:56N 34°41' E 135°16'0 0.0
2017-Nov-24 11:26N 34°41' E 135°16'0 0.0
2017-Nov-24 10:56N 34°41' E 135°16'0 0.0
2017-Nov-24 10:29N 34°41' E 135°16'0 0.0
2017-Nov-24 09:56N 34°41' E 135°16'0 0.1
2017-Nov-24 09:31N 34°41' E 135°16'0 0.9
2017-Nov-24 09:00N 34°40' E 135°15'3 6.1
2017-Nov-24 08:30N 34°38' E 135°17'714.4
2017-Nov-24 08:00N 34°31' E 135°14'816.2
2017-Nov-24 07:30N 34°25' E 135°08'918.2
2017-Nov-24 07:00N 34°18' E 135°00'815.6
2017-Nov-24 06:30N 34°11' E 135°00'511.0
2017-Nov-24 06:01N 34°05' E 134°58'915.7
2017-Nov-24 05:27N 33°57' E 134°58'219 7.8
2017-Nov-23 01:09N 34°51' E 139°15'521.9
2017-Nov-23 00:56N 34°53' E 139°21'921.3
2017-Nov-23 00:31N 34°58' E 139°30'918.7
2017-Nov-23 00:00N 35°04' E 139°39'713.9
2017-Nov-22 23:30N 35°08' E 139°45'612.7
2017-Nov-22 23:00N 35°15' E 139°46'612.9
2017-Nov-22 22:30N 35°20' E 139°42'713.5
2017-Nov-22 22:00N 35°26' E 139°46'714.4
2017-Nov-22 21:30N 35°32' E 139°51'510.9
2017-Nov-22 21:01N 35°36' E 139°46'1 1.4
2017-Nov-22 20:29N 35°37' E 139°46'0 0.0
2017-Nov-22 19:59N 35°37' E 139°46'0 0.0
2017-Nov-22 19:29N 35°37' E 139°46'  
Track history (hours):
 
Tides and Currents Weather Stations Pressure Air Temp Water Temp Dewpoint Dewpoint Depression Visibility Wind Speed Wind Dir Waves Ship Positions

San Diego Bridge

Last reported at 2017-Nov-24 20:29 UTC. Time now 2017-Nov-24 20:46 UTC.
Position N 34°41' E 135°16'.

Length 293 m; draft 10.6 m.

Type: Cargo ship. MMSI: 357547000.

Date/timePositionNaut miles runAvg speedWind from/ knotsBaromVisibWave heightAir tempDewpointWater temp
2017-Nov-24 20:29N 34°41' E 135°16'0 0.0
2017-Nov-24 19:59N 34°41' E 135°16'0 0.0
2017-Nov-24 19:29N 34°41' E 135°16'0 0.0
2017-Nov-24 18:56N 34°41' E 135°16'0 0.0
2017-Nov-24 18:29N 34°41' E 135°16'0 0.0
2017-Nov-24 17:59N 34°41' E 135°16'0 0.0
2017-Nov-24 17:29N 34°41' E 135°16'0 0.0
2017-Nov-24 16:59N 34°41' E 135°16'0 0.0
2017-Nov-24 16:29N 34°41' E 135°16'0 0.0
2017-Nov-24 15:59N 34°41' E 135°16'0 0.0
2017-Nov-24 15:29N 34°41' E 135°16'0 0.0
2017-Nov-24 14:56N 34°41' E 135°16'0 0.0
2017-Nov-24 14:29N 34°41' E 135°16'0 0.0
2017-Nov-24 13:59N 34°41' E 135°16'0 0.0
2017-Nov-24 13:29N 34°41' E 135°16'0 0.0
2017-Nov-24 12:59N 34°41' E 135°16'0 0.0
2017-Nov-24 12:29N 34°41' E 135°16'0 0.0
2017-Nov-24 11:56N 34°41' E 135°16'0 0.0
2017-Nov-24 11:26N 34°41' E 135°16'0 0.0
2017-Nov-24 10:56N 34°41' E 135°16'0 0.0
2017-Nov-24 10:29N 34°41' E 135°16'0 0.0
2017-Nov-24 09:56N 34°41' E 135°16'0 0.1
2017-Nov-24 09:31N 34°41' E 135°16'0 0.9
2017-Nov-24 09:00N 34°40' E 135°15'3 6.1
2017-Nov-24 08:30N 34°38' E 135°17'714.4
2017-Nov-24 08:00N 34°31' E 135°14'816.2
2017-Nov-24 07:30N 34°25' E 135°08'918.2
2017-Nov-24 07:00N 34°18' E 135°00'815.6
2017-Nov-24 06:30N 34°11' E 135°00'511.0
2017-Nov-24 06:01N 34°05' E 134°58'915.7
2017-Nov-24 05:27N 33°57' E 134°58'219 7.8
2017-Nov-23 01:09N 34°51' E 139°15'521.9
2017-Nov-23 00:56N 34°53' E 139°21'921.3
2017-Nov-23 00:31N 34°58' E 139°30'918.7
2017-Nov-23 00:00N 35°04' E 139°39'713.9
2017-Nov-22 23:30N 35°08' E 139°45'612.7
2017-Nov-22 23:00N 35°15' E 139°46'612.9
2017-Nov-22 22:30N 35°20' E 139°42'713.5
2017-Nov-22 22:00N 35°26' E 139°46'714.4
2017-Nov-22 21:30N 35°32' E 139°51'510.9
2017-Nov-22 21:01N 35°36' E 139°46'1 1.4
2017-Nov-22 20:29N 35°37' E 139°46'0 0.0
2017-Nov-22 19:59N 35°37' E 139°46'0 0.0
2017-Nov-22 19:29N 35°37' E 139°46'  

Dump ship's entire track history